Terminal Aerodrome Forecast
Issued by NWS

Home | Current Version | Previous Version | Text Only | Print | Product List | Glossary On
Versions: 1 2 3 4 5 6 7 8 9 10 11 12 13 14
333
FTUS42 TJSJ 281740
TAFJMZ
TAF
TJMZ 281740Z 2818/2918 29010KT P6SM VCTS SCT025CB BKN040
     FM282200 06006KT P6SM SCT025 SCT040
     FM291300 09007KT P6SM FEW025
      AMD NOT SKED=

USA.gov is the U.S. government's official web portal to all federal, state and local government web resources and services.